Time;durP1;ratioP1;P1;durP2;ratioP2;P2;SDS_P1;SDS_P2;PMS_P1;PMS_P2;Temp;Humidity;BMP_temperature;BMP_pressure;BME280_temperature;BME280_humidity;BME280_pressure;Samples;Min_cycle;Max_cycle;Signal;HPM_P1;HPM_P2
2021/04/14 04:19:11;;;;;;;3.67;2.95;;;1.90;46.20;;;;;;6281307;22;20521;-90
2021/04/14 04:21:37;;;;;;;3.67;3.25;;;1.80;45.90;;;;;;6254846;22;20157;-93
2021/04/14 04:24:03;;;;;;;7.00;2.60;;;1.70;45.80;;;;;;6254758;22;20153;-88
2021/04/14 04:34:59;;;;;;;3.33;3.03;;;1.70;46.00;;;;;;6279715;22;20213;-93
2021/04/14 04:37:25;;;;;;;2.88;2.67;;;2.00;46.10;;;;;;6253643;22;20187;-93
2021/04/14 04:39:54;;;;;;;2.53;2.30;;;2.30;46.10;;;;;;6259943;22;20145;-94
2021/04/14 04:42:22;;;;;;;6.55;5.38;;;2.10;45.90;;;;;;6229760;22;20157;-93
2021/04/14 04:44:48;;;;;;;7.97;6.35;;;2.90;47.00;;;;;;6253222;22;20461;-95
2021/04/14 04:47:14;;;;;;;11.43;8.50;;;2.60;46.80;;;;;;6253001;22;20164;-94
2021/04/14 04:49:41;;;;;;;6.77;6.07;;;2.20;45.80;;;;;;6254788;22;20376;-94
2021/04/14 04:52:07;;;;;;;4.97;4.57;;;3.00;46.40;;;;;;6253556;22;20176;-94
2021/04/14 04:54:33;;;;;;;5.78;5.28;;;2.10;45.50;;;;;;6254038;22;20235;-94
2021/04/14 04:57:06;;;;;;;6.13;4.05;;;1.70;45.30;;;;;;6253413;22;20145;-94
2021/04/14 04:59:31;;;;;;;4.40;4.00;;;2.10;45.40;;;;;;6256861;22;20161;-93
2021/04/14 05:01:59;;;;;;;5.40;4.90;;;2.10;45.60;;;;;;6252285;22;20141;-94
2021/04/14 05:04:25;;;;;;;4.53;4.15;;;2.10;45.50;;;;;;6252465;22;20590;-92
2021/04/14 05:06:50;;;;;;;6.63;5.03;;;2.40;45.60;;;;;;6252278;22;20149;-91
2021/04/14 05:09:16;;;;;;;5.10;4.70;;;2.30;45.00;;;;;;6252827;22;20171;-90
2021/04/14 05:11:42;;;;;;;4.57;4.07;;;2.20;44.80;;;;;;6253882;22;20163;-91
2021/04/14 05:14:08;;;;;;;5.27;3.73;;;2.70;45.30;;;;;;6279682;22;20206;-92
2021/04/14 05:16:33;;;;;;;5.87;4.10;;;2.80;45.40;;;;;;6252169;22;20176;-91
2021/04/14 05:18:59;;;;;;;5.27;4.03;;;2.90;45.40;;;;;;6253071;22;20402;-92
2021/04/14 05:21:25;;;;;;;3.53;3.23;;;2.10;44.80;;;;;;6253739;22;20160;-92
2021/04/14 05:23:53;;;;;;;4.07;3.67;;;2.80;45.20;;;;;;6253425;22;20236;-92
2021/04/14 05:26:19;;;;;;;4.78;3.60;;;3.00;45.30;;;;;;6253027;22;20387;-91
2021/04/14 05:28:46;;;;;;;3.33;3.03;;;2.70;45.10;;;;;;6280056;22;20130;-92
2021/04/14 05:31:12;;;;;;;4.50;3.17;;;2.50;44.00;;;;;;6254115;22;20236;-91
2021/04/14 05:33:38;;;;;;;3.38;3.08;;;2.60;44.60;;;;;;6252056;22;20204;-91
2021/04/14 05:36:04;;;;;;;3.40;3.10;;;2.40;44.10;;;;;;6252258;22;20152;-90
2021/04/14 05:38:31;;;;;;;7.18;3.45;;;3.20;44.60;;;;;;6253831;22;20382;-92
2021/04/14 05:40:58;;;;;;;3.58;3.28;;;3.00;44.20;;;;;;6253769;22;20206;-94
2021/04/14 05:43:27;;;;;;;5.18;3.20;;;3.30;44.20;;;;;;6256289;22;20145;-92
2021/04/14 05:45:54;;;;;;;3.53;2.92;;;3.30;43.80;;;;;;6253366;22;20153;-93
2021/04/14 05:48:24;;;;;;;3.78;3.47;;;3.50;43.70;;;;;;6255213;22;20153;-92
2021/04/14 05:50:51;;;;;;;3.75;3.45;;;3.60;43.60;;;;;;6253860;22;20149;-92
2021/04/14 05:53:20;;;;;;;3.28;3.03;;;3.60;42.60;;;;;;6256310;22;20149;-92
2021/04/14 05:55:46;;;;;;;3.58;3.25;;;3.20;43.20;;;;;;6262770;22;20153;-88
2021/04/14 05:58:12;;;;;;;8.20;6.27;;;3.80;43.30;;;;;;6253195;22;20149;-90
2021/04/14 06:00:37;;;;;;;7.20;5.73;;;4.10;43.10;;;;;;6253710;22;20821;-91
2021/04/14 06:03:03;;;;;;;6.33;4.90;;;4.00;43.60;;;;;;6253833;22;20144;-91
2021/04/14 06:05:29;;;;;;;3.90;3.50;;;4.50;43.60;;;;;;6253361;22;20487;-91
2021/04/14 06:07:55;;;;;;;5.53;4.03;;;5.10;41.50;;;;;;6253582;22;20387;-89
2021/04/14 06:10:22;;;;;;;5.43;4.27;;;5.60;39.20;;;;;;6254530;22;20576;-90
2021/04/14 06:12:50;;;;;;;4.63;4.22;;;6.30;37.30;;;;;;6256312;22;20220;-90
2021/04/14 06:15:21;;;;;;;5.53;5.10;;;7.00;36.30;;;;;;6254248;22;20173;-91
2021/04/14 06:17:46;;;;;;;4.60;4.20;;;7.70;34.80;;;;;;6252956;22;20228;-91
2021/04/14 06:20:16;;;;;;;4.17;3.77;;;7.60;33.10;;;;;;6253752;22;20149;-92
2021/04/14 06:22:42;;;;;;;4.03;3.58;;;8.50;31.90;;;;;;6253866;22;20822;-91
2021/04/14 06:25:13;;;;;;;4.28;3.70;;;9.20;30.60;;;;;;6252498;22;20195;-91
2021/04/14 06:28:05;;;;;;;3.83;3.40;;;9.70;30.10;;;;;;6253166;22;20152;-91
2021/04/14 06:30:36;;;;;;;3.80;3.37;;;10.60;27.80;;;;;;6252995;22;20380;-92
2021/04/14 06:33:03;;;;;;;3.60;3.30;;;11.50;26.90;;;;;;6252191;22;20371;-91
2021/04/14 06:35:31;;;;;;;4.10;3.80;;;11.80;25.80;;;;;;6253188;22;20438;-91
2021/04/14 06:37:59;;;;;;;3.60;2.83;;;12.50;24.30;;;;;;6253847;22;20782;-91
2021/04/14 06:43:20;;;;;;;5.73;4.80;;;13.20;23.20;;;;;;6286340;22;20364;-91
2021/04/14 06:46:15;;;;;;;4.37;3.97;;;13.70;21.70;;;;;;6254131;22;20738;-91
2021/04/14 06:48:46;;;;;;;4.70;4.30;;;13.90;22.10;;;;;;6256308;22;20392;-90
2021/04/14 06:51:40;;;;;;;4.70;4.20;;;14.20;21.70;;;;;;6254017;22;20589;-92
2021/04/14 06:54:13;;;;;;;4.83;4.30;;;14.10;20.30;;;;;;6253199;22;20430;-91
2021/04/14 06:56:40;;;;;;;4.70;4.30;;;13.70;21.30;;;;;;6252994;22;20376;-92
2021/04/14 06:59:25;;;;;;;5.37;4.87;;;13.70;21.80;;;;;;6254058;22;20426;-93
2021/04/14 07:01:56;;;;;;;6.30;4.70;;;13.80;21.80;;;;;;6253965;22;20375;-92
2021/04/14 07:05:03;;;;;;;5.20;4.70;;;13.20;22.10;;;;;;6259134;22;20375;-93
2021/04/14 07:07:32;;;;;;;7.10;5.30;;;13.30;22.60;;;;;;6213465;22;20383;-92
2021/04/14 07:10:05;;;;;;;6.33;5.60;;;13.00;23.00;;;;;;6256597;22;20435;-92
2021/04/14 07:12:31;;;;;;;5.93;5.00;;;13.00;23.00;;;;;;6255970;22;20483;-91
2021/04/14 07:15:05;;;;;;;8.03;6.10;;;13.40;23.50;;;;;;6255189;22;20434;-93
2021/04/14 07:17:46;;;;;;;5.40;4.90;;;13.20;23.00;;;;;;6256234;22;20380;-93
2021/04/14 07:24:02;;;;;;;6.13;5.70;;;13.00;23.10;;;;;;6280225;22;20344;-92
2021/04/14 07:26:48;;;;;;;5.70;5.20;;;13.00;23.50;;;;;;6254843;22;20383;-90
2021/04/14 07:29:35;;;;;;;6.40;5.80;;;12.80;23.60;;;;;;6253875;22;20372;-90
2021/04/14 07:32:38;;;;;;;6.13;5.70;;;13.10;24.10;;;;;;6253850;22;20854;-90
2021/04/14 07:35:30;;;;;;;7.50;6.93;;;13.00;24.10;;;;;;6243621;23;20432;-89
2021/04/14 07:38:33;;;;;;;4.70;4.20;;;12.60;24.10;;;;;;6247919;23;20376;-88
2021/04/14 07:41:31;;;;;;;7.60;5.67;;;12.50;24.20;;;;;;6250444;23;20382;-90
2021/04/14 07:44:24;;;;;;;6.25;5.65;;;12.40;24.10;;;;;;6250270;23;20391;-89
2021/04/14 07:46:52;;;;;;;6.30;5.40;;;11.90;24.70;;;;;;6249742;23;20204;-88
2021/04/14 07:49:19;;;;;;;5.93;5.43;;;11.70;25.60;;;;;;6249748;23;20178;-89
2021/04/14 07:51:45;;;;;;;5.22;4.72;;;11.60;26.20;;;;;;6246127;23;20161;-88
2021/04/14 07:54:23;;;;;;;6.33;5.57;;;11.50;26.50;;;;;;6246163;23;20188;-88
2021/04/14 07:56:50;;;;;;;5.35;4.75;;;11.50;26.90;;;;;;6248955;23;20145;-90
2021/04/14 07:59:37;;;;;;;6.93;5.90;;;10.80;27.00;;;;;;6249740;23;20150;-90
2021/04/14 08:02:11;;;;;;;6.63;5.85;;;10.90;27.00;;;;;;6250220;23;20232;-90
2021/04/14 08:04:45;;;;;;;6.13;5.30;;;10.80;28.40;;;;;;6252775;23;20225;-91
2021/04/14 08:07:16;;;;;;;6.90;5.47;;;10.30;28.30;;;;;;6252641;23;20632;-89
2021/04/14 08:09:57;;;;;;;5.00;4.60;;;10.40;28.70;;;;;;6252093;23;20592;-89
2021/04/14 08:12:28;;;;;;;6.47;4.35;;;10.50;28.40;;;;;;6251481;23;20240;-89
2021/04/14 08:15:11;;;;;;;5.90;5.10;;;10.60;29.00;;;;;;6250613;23;20181;-89
2021/04/14 08:17:37;;;;;;;5.82;5.10;;;10.90;28.60;;;;;;6250653;23;20153;-88
2021/04/14 08:20:07;;;;;;;6.15;5.60;;;11.10;28.30;;;;;;6249295;23;20188;-90
2021/04/14 08:22:34;;;;;;;6.00;5.40;;;10.80;29.00;;;;;;6250321;23;20165;-89
2021/04/14 08:25:03;;;;;;;5.43;4.93;;;10.70;28.70;;;;;;6250861;23;20150;-89
2021/04/14 08:27:33;;;;;;;6.78;6.07;;;10.80;28.90;;;;;;6250422;23;20153;-91
2021/04/14 08:30:05;;;;;;;5.93;5.00;;;10.50;28.00;;;;;;6250591;23;20157;-90
2021/04/14 08:32:41;;;;;;;5.30;4.45;;;10.70;28.60;;;;;;6253412;23;20156;-92
2021/04/14 08:35:34;;;;;;;4.63;4.22;;;10.50;27.90;;;;;;6253015;23;20193;-88
2021/04/14 08:38:03;;;;;;;5.20;4.68;;;10.80;28.60;;;;;;6248840;22;20596;-88
2021/04/14 08:40:51;;;;;;;6.05;4.38;;;10.70;28.50;;;;;;6249775;23;20160;-89
2021/04/14 08:43:33;;;;;;;7.85;4.22;;;10.50;27.30;;;;;;6249401;23;20154;-91
2021/04/14 08:46:27;;;;;;;6.80;4.82;;;10.60;27.50;;;;;;6249978;23;20153;-89
2021/04/14 08:49:01;;;;;;;5.95;5.20;;;10.70;28.50;;;;;;6246768;22;20585;-89
2021/04/14 08:51:29;;;;;;;12.40;4.45;;;10.20;28.20;;;;;;6250000;23;20504;-90
2021/04/14 08:53:59;;;;;;;3.97;3.60;;;10.60;29.00;;;;;;6249237;23;20247;-91
2021/04/14 08:56:26;;;;;;;5.28;4.07;;;10.60;28.70;;;;;;6249677;23;20142;-89
2021/04/14 08:58:56;;;;;;;7.10;3.67;;;10.60;27.90;;;;;;6252046;23;20153;-91
2021/04/14 09:01:37;;;;;;;4.80;3.55;;;10.80;27.60;;;;;;6255702;23;20146;-93
2021/04/14 09:04:08;;;;;;;3.50;2.80;;;10.60;27.90;;;;;;6253555;23;20172;-88
2021/04/14 09:06:54;;;;;;;4.25;3.28;;;10.80;27.10;;;;;;6250826;23;20273;-93
2021/04/14 09:09:28;;;;;;;3.45;2.70;;;10.70;26.10;;;;;;6249452;23;20616;-91
2021/04/14 09:12:06;;;;;;;4.13;3.35;;;10.60;27.00;;;;;;6251911;23;20224;-92
2021/04/14 09:14:33;;;;;;;3.40;3.10;;;10.80;27.40;;;;;;6251418;23;20185;-91
2021/04/14 09:17:06;;;;;;;3.50;2.50;;;11.10;26.50;;;;;;6254898;23;20577;-93
2021/04/14 09:19:41;;;;;;;6.60;3.15;;;11.00;25.70;;;;;;6255334;23;20154;-91
2021/04/14 09:22:17;;;;;;;4.32;2.10;;;11.00;24.70;;;;;;6256390;23;20200;-91
2021/04/14 09:24:53;;;;;;;2.30;2.00;;;11.30;24.70;;;;;;6255747;23;20252;-91
2021/04/14 09:27:35;;;;;;;3.00;2.28;;;11.50;25.00;;;;;;6255631;23;20160;-93
2021/04/14 09:30:27;;;;;;;6.05;3.35;;;11.40;24.00;;;;;;6254551;23;20154;-92
2021/04/14 09:33:06;;;;;;;2.30;1.92;;;11.00;23.60;;;;;;6249396;22;20166;-91
2021/04/14 09:35:32;;;;;;;5.72;3.00;;;11.10;24.20;;;;;;6251080;23;20203;-91
2021/04/14 09:38:23;;;;;;;5.60;3.27;;;11.10;24.90;;;;;;6251100;23;20177;-92
2021/04/14 09:40:49;;;;;;;5.13;3.10;;;11.10;25.60;;;;;;6250118;23;20145;-91
2021/04/14 09:43:25;;;;;;;2.90;2.60;;;11.00;24.10;;;;;;6249508;23;20160;-91
2021/04/14 09:46:03;;;;;;;2.22;2.10;;;11.20;23.80;;;;;;6250776;23;20149;-93
2021/04/14 09:48:47;;;;;;;4.45;4.05;;;11.50;23.30;;;;;;6250978;23;20154;-93
2021/04/14 09:51:34;;;;;;;3.17;2.63;;;11.60;22.20;;;;;;6250651;23;20695;-93
2021/04/14 09:54:10;;;;;;;3.55;2.97;;;11.40;21.90;;;;;;6251718;23;20480;-93
2021/04/14 09:56:36;;;;;;;3.20;2.60;;;11.50;24.10;;;;;;6256010;23;20199;-93
2021/04/14 09:59:14;;;;;;;3.28;2.63;;;11.40;24.50;;;;;;6255528;23;20595;-90
2021/04/14 10:01:42;;;;;;;4.65;2.90;;;11.50;23.80;;;;;;6249485;23;20224;-92
2021/04/14 10:04:25;;;;;;;3.78;3.47;;;11.90;22.40;;;;;;6249054;23;20546;-93
2021/04/14 10:07:05;;;;;;;2.40;2.10;;;11.90;21.90;;;;;;6250085;23;20154;-93
2021/04/14 10:09:36;;;;;;;2.50;2.30;;;12.00;20.60;;;;;;6250774;23;20232;-92
2021/04/14 10:12:20;;;;;;;3.35;2.10;;;11.80;20.60;;;;;;6251996;23;20146;-91
2021/04/14 10:14:47;;;;;;;4.00;1.95;;;11.90;21.30;;;;;;6249856;23;20181;-92
2021/04/14 10:17:17;;;;;;;2.35;2.05;;;11.90;19.70;;;;;;6248813;23;20576;-92
2021/04/14 10:19:42;;;;;;;4.10;2.65;;;12.20;19.60;;;;;;6248733;23;20655;-91
2021/04/14 10:22:21;;;;;;;4.30;2.40;;;11.80;19.60;;;;;;6247706;23;20152;-93
2021/04/14 10:24:58;;;;;;;2.50;2.30;;;11.90;20.20;;;;;;6247943;23;20384;-93
2021/04/14 10:27:23;;;;;;;2.63;2.38;;;11.80;20.00;;;;;;6250823;23;20145;-92
2021/04/14 10:29:49;;;;;;;3.67;2.20;;;11.80;20.80;;;;;;6252567;23;20177;-92
2021/04/14 10:32:19;;;;;;;2.50;1.63;;;11.80;19.40;;;;;;6251773;23;20380;-93
2021/04/14 10:34:46;;;;;;;4.13;2.08;;;11.70;16.80;;;;;;6249252;23;20193;-93
2021/04/14 10:37:30;;;;;;;5.68;2.38;;;12.10;17.90;;;;;;6250091;23;20161;-93
2021/04/14 10:40:19;;;;;;;2.75;1.80;;;11.90;19.60;;;;;;6251776;23;20149;-90
2021/04/14 10:42:47;;;;;;;2.17;1.98;;;12.40;19.70;;;;;;6247586;23;20152;-93
2021/04/14 10:45:27;;;;;;;3.38;2.97;;;12.20;18.00;;;;;;6248581;23;20185;-91
2021/04/14 10:47:56;;;;;;;3.20;2.30;;;12.30;19.90;;;;;;6248143;23;20161;-92
2021/04/14 10:50:29;;;;;;;2.80;2.60;;;12.30;19.80;;;;;;6249164;23;20232;-92
2021/04/14 10:53:24;;;;;;;3.78;2.40;;;12.50;19.10;;;;;;6247848;23;20166;-92
2021/04/14 10:55:52;;;;;;;2.47;2.28;;;12.70;19.90;;;;;;6241154;22;20173;-93
2021/04/14 10:58:25;;;;;;;4.55;3.40;;;12.30;19.70;;;;;;6247938;23;20611;-93
2021/04/14 11:00:52;;;;;;;2.13;1.67;;;12.40;18.10;;;;;;6248729;23;20631;-90
2021/04/14 11:03:24;;;;;;;2.20;1.50;;;12.80;18.20;;;;;;6247893;23;20385;-91
2021/04/14 11:05:55;;;;;;;2.57;2.37;;;12.40;16.40;;;;;;6248314;23;20384;-90
2021/04/14 11:08:26;;;;;;;2.50;2.07;;;12.70;17.60;;;;;;6248579;23;20448;-90
2021/04/14 11:10:58;;;;;;;2.53;1.83;;;12.70;17.10;;;;;;6249287;23;20384;-92
2021/04/14 11:13:28;;;;;;;2.23;1.90;;;12.80;18.60;;;;;;6250917;23;20387;-90
2021/04/14 11:15:54;;;;;;;3.00;2.77;;;12.80;19.50;;;;;;6252634;22;20385;-90
2021/04/14 11:18:46;;;;;;;3.53;2.20;;;12.90;19.70;;;;;;6250909;23;20392;-91
2021/04/14 11:21:25;;;;;;;3.07;2.50;;;12.90;18.60;;;;;;6250229;23;20376;-91
2021/04/14 11:24:14;;;;;;;5.30;2.10;;;13.30;18.30;;;;;;6249598;23;20395;-91
2021/04/14 11:26:54;;;;;;;3.10;2.87;;;13.00;18.30;;;;;;6249308;23;20483;-92
2021/04/14 11:29:30;;;;;;;3.27;2.00;;;13.00;18.90;;;;;;6250176;23;20834;-91
2021/04/14 11:32:00;;;;;;;2.13;1.93;;;12.90;18.70;;;;;;6249799;23;20396;-92
2021/04/14 11:34:38;;;;;;;2.05;1.95;;;12.80;18.80;;;;;;6250471;23;20444;-91
2021/04/14 11:37:05;;;;;;;2.50;2.30;;;12.40;19.60;;;;;;6251575;23;20153;-91
2021/04/14 11:40:10;;;;;;;6.45;3.33;;;11.90;21.30;;;;;;6250831;23;20228;-92
2021/04/14 11:42:56;;;;;;;3.58;2.72;;;11.50;21.90;;;;;;6249997;23;20160;-91
2021/04/14 11:45:25;;;;;;;4.38;2.80;;;11.70;23.40;;;;;;6251130;23;20153;-92
2021/04/14 11:47:51;;;;;;;3.33;2.75;;;11.60;23.30;;;;;;6250832;23;20158;-92
2021/04/14 11:50:31;;;;;;;3.05;2.67;;;11.40;24.10;;;;;;6252317;23;20156;-93
2021/04/14 11:53:26;;;;;;;4.25;3.10;;;11.30;25.10;;;;;;6256548;22;20130;-92
2021/04/14 11:55:52;;;;;;;3.97;2.95;;;11.00;24.70;;;;;;6252527;23;20193;-94
2021/04/14 11:58:30;;;;;;;2.42;2.22;;;11.30;24.80;;;;;;6254128;23;20158;-93
2021/04/14 12:00:55;;;;;;;4.18;2.78;;;11.10;24.90;;;;;;6252560;23;20580;-92
2021/04/14 12:03:38;;;;;;;2.73;2.53;;;11.10;25.20;;;;;;6251826;23;20207;-92
2021/04/14 12:06:04;;;;;;;3.60;2.28;;;11.00;24.00;;;;;;6250352;23;20373;-91
2021/04/14 12:08:30;;;;;;;2.15;1.95;;;11.10;24.40;;;;;;6251079;23;20233;-92
2021/04/14 12:10:58;;;;;;;2.30;2.10;;;10.70;24.70;;;;;;6250532;23;20173;-90
2021/04/14 12:13:24;;;;;;;2.45;2.22;;;11.20;23.90;;;;;;6250319;23;20591;-90
2021/04/14 12:15:51;;;;;;;3.03;2.00;;;11.00;23.30;;;;;;6250431;23;20172;-90
2021/04/14 12:18:23;;;;;;;1.70;1.60;;;11.30;22.40;;;;;;6250584;23;20150;-90
2021/04/14 12:20:48;;;;;;;2.00;1.90;;;11.50;22.00;;;;;;6250368;23;20154;-94
2021/04/14 12:23:15;;;;;;;7.67;2.77;;;12.00;21.60;;;;;;6250693;23;20199;-91
2021/04/14 12:25:41;;;;;;;2.90;2.60;;;11.80;21.00;;;;;;6250695;23;20154;-90
2021/04/14 12:28:09;;;;;;;3.42;2.30;;;12.10;21.60;;;;;;6249840;23;20176;-90
2021/04/14 12:30:35;;;;;;;4.35;2.35;;;11.90;20.60;;;;;;6251522;23;20156;-91
2021/04/14 12:33:03;;;;;;;2.55;2.35;;;12.10;20.70;;;;;;6251283;23;20157;-91
2021/04/14 12:35:29;;;;;;;3.50;2.17;;;12.30;20.50;;;;;;6249400;23;20193;-91
2021/04/14 12:37:58;;;;;;;2.78;2.40;;;12.30;20.60;;;;;;6249764;23;20157;-93
2021/04/14 12:40:24;;;;;;;3.37;2.77;;;12.40;20.80;;;;;;6250489;23;20480;-91
2021/04/14 12:42:49;;;;;;;2.53;2.20;;;12.40;19.70;;;;;;6250001;23;20381;-91
2021/04/14 12:45:19;;;;;;;4.00;2.23;;;12.50;19.10;;;;;;6249859;23;20161;-92
2021/04/14 12:47:45;;;;;;;3.45;2.13;;;12.70;19.60;;;;;;6250336;23;20160;-92
2021/04/14 12:50:12;;;;;;;2.50;2.30;;;12.50;19.90;;;;;;6251371;23;20208;-92
2021/04/14 12:52:44;;;;;;;2.08;1.73;;;12.80;20.20;;;;;;6251882;23;20158;-93
2021/04/14 12:55:16;;;;;;;4.10;2.70;;;13.00;18.90;;;;;;6251890;23;20229;-92
2021/04/14 12:57:43;;;;;;;2.30;2.10;;;12.80;19.40;;;;;;6251398;23;20407;-92
2021/04/14 13:00:16;;;;;;;2.47;1.90;;;12.60;19.80;;;;;;6251498;23;20149;-91
2021/04/14 13:02:56;;;;;;;2.95;2.50;;;12.20;19.80;;;;;;6250677;23;20146;-91
2021/04/14 13:05:46;;;;;;;3.03;2.72;;;12.30;18.70;;;;;;6251977;23;20589;-92
2021/04/14 13:08:17;;;;;;;3.30;2.30;;;12.10;18.70;;;;;;6252167;23;20245;-93
2021/04/14 13:11:09;;;;;;;2.80;2.10;;;11.90;19.10;;;;;;6250757;23;20859;-91
2021/04/14 13:13:35;;;;;;;2.67;2.50;;;11.90;19.30;;;;;;6252521;23;20383;-92
2021/04/14 13:16:15;;;;;;;4.60;2.37;;;11.90;20.40;;;;;;6251317;23;20396;-92
2021/04/14 13:18:41;;;;;;;2.75;2.55;;;12.00;19.40;;;;;;6254068;23;20376;-92
2021/04/14 13:21:34;;;;;;;5.53;2.70;;;11.80;19.40;;;;;;6254288;23;20200;-93
2021/04/14 13:25:00;;;;;;;1.93;1.83;;;12.20;19.00;;;;;;6252872;23;20687;-95
2021/04/14 13:30:48;;;;;;;2.92;2.00;;;12.40;18.30;;;;;;6253185;23;20360;-94
2021/04/14 13:33:33;;;;;;;2.00;1.90;;;12.80;19.20;;;;;;6251242;23;20467;-94
2021/04/14 13:36:20;;;;;;;2.43;2.23;;;12.20;19.00;;;;;;6256016;22;20407;-94
2021/04/14 13:38:48;;;;;;;3.35;2.33;;;12.10;18.70;;;;;;6256695;22;20387;-92
2021/04/14 13:41:26;;;;;;;2.72;2.33;;;12.30;19.30;;;;;;6256396;22;20541;-93
2021/04/14 13:43:57;;;;;;;3.13;2.53;;;12.00;19.40;;;;;;6256761;22;20525;-94
2021/04/14 13:46:32;;;;;;;8.52;2.78;;;11.70;19.20;;;;;;6256051;22;20155;-92
2021/04/14 13:49:29;;;;;;;2.30;1.73;;;11.70;20.80;;;;;;6257556;22;20176;-94
2021/04/14 13:52:01;;;;;;;3.30;3.00;;;11.60;20.60;;;;;;6258701;22;20153;-92
2021/04/14 13:54:29;;;;;;;4.70;3.15;;;11.40;25.40;;;;;;6255612;22;20188;-93
2021/04/14 13:57:10;;;;;;;2.85;2.53;;;11.40;26.90;;;;;;6255851;22;20224;-93
2021/04/14 13:59:47;;;;;;;5.82;3.13;;;11.20;27.80;;;;;;6255962;22;20224;-92
2021/04/14 14:02:30;;;;;;;4.38;3.20;;;11.00;28.40;;;;;;6255838;22;20159;-92
2021/04/14 14:04:58;;;;;;;9.07;3.53;;;10.70;29.30;;;;;;6254633;22;20153;-91
2021/04/14 14:08:04;;;;;;;3.65;2.47;;;11.00;29.20;;;;;;6254774;22;20153;-91
2021/04/14 14:10:56;;;;;;;5.15;3.10;;;10.10;28.50;;;;;;6254790;22;20156;-92
2021/04/14 14:13:25;;;;;;;4.97;3.25;;;10.70;28.40;;;;;;6255009;22;20149;-93
2021/04/14 14:16:12;;;;;;;5.10;4.22;;;10.90;28.90;;;;;;6256099;22;20199;-94
2021/04/14 14:19:00;;;;;;;6.07;4.20;;;10.50;27.90;;;;;;6255331;22;20176;-91
2021/04/14 14:21:26;;;;;;;2.67;2.47;;;11.00;28.20;;;;;;6253762;22;20156;-90
2021/04/14 14:23:53;;;;;;;3.03;2.65;;;11.00;27.80;;;;;;6254528;22;20153;-90
2021/04/14 14:26:24;;;;;;;5.63;2.72;;;11.30;27.60;;;;;;6255744;22;20149;-90
2021/04/14 14:32:32;;;;;;;4.18;3.78;;;11.70;26.60;;;;;;6286363;22;20135;-92
2021/04/14 14:35:43;;;;;;;4.20;2.70;;;12.00;25.90;;;;;;6251495;23;20261;-95
2021/04/14 14:50:57;;;;;;;4.18;2.97;;;11.90;24.70;;;;;;6192359;23;20213;-94
2021/04/14 14:57:12;;;;;;;5.35;3.78;;;11.80;24.50;;;;;;6213645;23;20188;-95
2021/04/14 15:20:41;;;;;;;5.68;3.70;;;11.00;29.00;;;;;;6260849;22;20286;-93
2021/04/14 15:23:06;;;;;;;3.03;2.70;;;10.50;28.90;;;;;;6257030;22;20176;-93
2021/04/14 15:25:34;;;;;;;3.20;3.00;;;10.70;29.20;;;;;;6256956;22;20149;-92
2021/04/14 15:28:02;;;;;;;3.53;2.95;;;10.60;28.90;;;;;;6257929;22;20157;-91
2021/04/14 15:30:48;;;;;;;3.78;3.40;;;10.60;28.70;;;;;;6257727;22;20195;-92
2021/04/14 15:33:14;;;;;;;4.93;2.83;;;10.90;28.60;;;;;;6257914;22;20152;-94
2021/04/14 15:36:07;;;;;;;3.40;3.10;;;10.60;28.70;;;;;;6257896;22;20255;-93
2021/04/14 15:38:33;;;;;;;3.35;2.63;;;10.70;30.00;;;;;;6257615;22;20492;-93
2021/04/14 15:41:28;;;;;;;3.83;3.40;;;10.60;32.10;;;;;;6258272;22;20141;-93
2021/04/14 15:43:54;;;;;;;3.47;3.17;;;10.30;32.80;;;;;;6257507;22;20523;-89
2021/04/14 15:46:20;;;;;;;3.60;3.30;;;9.30;34.30;;;;;;6257371;22;20149;-92
2021/04/14 15:48:47;;;;;;;3.63;3.30;;;10.10;36.00;;;;;;6285511;22;20671;-92
2021/04/14 15:51:22;;;;;;;4.65;3.67;;;9.60;37.00;;;;;;6258368;22;20379;-92
2021/04/14 15:53:51;;;;;;;5.13;3.65;;;9.30;37.50;;;;;;6258475;22;20155;-91
2021/04/14 15:56:25;;;;;;;12.10;3.83;;;9.20;37.80;;;;;;6259750;22;20227;-87
2021/04/14 15:58:52;;;;;;;4.30;3.75;;;9.20;38.70;;;;;;6255388;22;20580;-92
2021/04/14 16:01:23;;;;;;;5.72;3.25;;;9.30;38.60;;;;;;6256147;22;20145;-92
2021/04/14 16:04:10;;;;;;;4.15;3.85;;;8.90;39.00;;;;;;6256097;22;20158;-91
2021/04/14 16:07:10;;;;;;;4.47;3.75;;;8.60;39.10;;;;;;6252426;22;20169;-91
2021/04/14 16:09:36;;;;;;;3.55;3.20;;;9.00;39.80;;;;;;6254852;22;20576;-92
2021/04/14 16:12:03;;;;;;;4.30;3.77;;;8.90;39.90;;;;;;6254688;22;20152;-90
2021/04/14 16:14:29;;;;;;;6.70;4.05;;;8.90;40.20;;;;;;6254814;22;20188;-90
2021/04/14 16:16:55;;;;;;;5.47;3.93;;;9.00;40.90;;;;;;6254969;22;20169;-90
2021/04/14 16:19:21;;;;;;;4.40;4.00;;;8.80;41.00;;;;;;6255526;22;20141;-92
2021/04/14 16:21:47;;;;;;;4.77;4.37;;;9.00;41.70;;;;;;6255337;22;20426;-91
2021/04/14 16:24:37;;;;;;;4.63;4.10;;;8.90;41.80;;;;;;6255296;22;20160;-94
2021/04/14 16:27:03;;;;;;;5.18;4.68;;;8.80;40.20;;;;;;6256284;22;20753;-90
2021/04/14 16:29:35;;;;;;;9.33;5.30;;;8.90;40.50;;;;;;6255699;22;20240;-89
2021/04/14 16:32:02;;;;;;;7.75;4.25;;;8.30;40.10;;;;;;6261490;22;20388;-92
2021/04/14 16:34:29;;;;;;;4.65;4.20;;;8.60;40.40;;;;;;6256262;22;20215;-91
2021/04/14 16:40:33;;;;;;;5.47;3.72;;;8.70;40.40;;;;;;6283747;22;20182;-90
2021/04/14 16:42:59;;;;;;;5.53;5.03;;;8.80;40.00;;;;;;6257624;22;20141;-91
2021/04/14 16:45:39;;;;;;;4.85;4.45;;;8.70;39.50;;;;;;6255994;22;20584;-90
2021/04/14 16:48:06;;;;;;;4.85;4.07;;;8.80;40.30;;;;;;6256890;22;20587;-92
2021/04/14 16:50:33;;;;;;;5.07;4.78;;;8.90;40.30;;;;;;6257317;22;20175;-92
2021/04/14 16:52:59;;;;;;;5.25;4.45;;;8.60;40.50;;;;;;6256265;22;20156;-90
2021/04/14 17:02:09;;;;;;;7.25;3.80;;;9.60;38.60;;;;;;6287326;22;20156;-91
2021/04/14 17:04:37;;;;;;;4.50;4.07;;;10.30;36.60;;;;;;6256408;22;20149;-89
2021/04/14 17:07:03;;;;;;;4.82;3.80;;;10.40;35.30;;;;;;6257677;22;20516;-91
2021/04/14 17:09:34;;;;;;;3.60;3.30;;;10.80;36.10;;;;;;6284119;22;20134;-90
2021/04/14 17:12:00;;;;;;;4.43;4.03;;;10.80;35.40;;;;;;6257096;22;20157;-90
2021/04/14 17:14:27;;;;;;;3.93;3.63;;;10.90;34.80;;;;;;6255358;22;20192;-91
2021/04/14 17:16:54;;;;;;;4.45;4.10;;;10.70;34.10;;;;;;6255775;22;20232;-92
2021/04/14 17:22:29;;;;;;;4.25;3.90;;;10.70;32.20;;;;;;6282649;22;20279;-91
2021/04/14 17:25:14;;;;;;;3.57;3.27;;;11.00;32.80;;;;;;6255100;22;20145;-91
2021/04/14 17:27:41;;;;;;;3.75;3.42;;;11.60;32.40;;;;;;6254871;22;20206;-91
2021/04/14 17:30:10;;;;;;;5.38;4.10;;;11.10;32.10;;;;;;6255539;22;20141;-91
2021/04/14 17:32:44;;;;;;;4.78;3.55;;;11.10;32.00;;;;;;6254142;22;20156;-91
2021/04/14 17:35:11;;;;;;;4.35;4.05;;;10.70;31.60;;;;;;6259316;22;20183;-94
2021/04/14 17:37:39;;;;;;;6.95;4.30;;;10.60;31.40;;;;;;6257510;22;20148;-93
2021/04/14 17:40:06;;;;;;;3.85;3.55;;;11.10;32.20;;;;;;6257046;22;20156;-94
2021/04/14 17:42:35;;;;;;;7.25;4.70;;;11.10;32.20;;;;;;6257422;22;20140;-93
2021/04/14 17:45:55;;;;;;;5.38;4.43;;;10.70;32.00;;;;;;6259334;22;20594;-93
2021/04/14 17:48:21;;;;;;;4.45;4.00;;;10.40;32.20;;;;;;6262488;22;20153;-95
2021/04/14 17:54:11;;;;;;;4.18;3.83;;;10.70;31.70;;;;;;6290033;22;20594;-92
2021/04/14 17:56:38;;;;;;;4.60;4.07;;;10.60;32.20;;;;;;6265599;22;20220;-92
2021/04/14 17:59:06;;;;;;;5.40;4.90;;;10.60;32.30;;;;;;6266189;22;20148;-94
2021/04/14 18:04:55;;;;;;;4.55;4.15;;;10.20;33.30;;;;;;6296042;22;20144;-94
2021/04/14 18:10:44;;;;;;;5.55;4.80;;;10.10;34.10;;;;;;6292500;22;20235;-93
2021/04/14 18:13:17;;;;;;;5.40;4.90;;;9.80;36.00;;;;;;6264163;22;20141;-93
2021/04/14 18:15:46;;;;;;;4.93;4.53;;;10.00;33.90;;;;;;6259098;22;20188;-93
2021/04/14 18:18:30;;;;;;;5.00;4.50;;;9.70;34.70;;;;;;6264532;22;20168;-94
2021/04/14 18:21:16;;;;;;;4.72;4.18;;;9.80;34.60;;;;;;6258121;22;20211;-90
2021/04/14 18:23:43;;;;;;;4.47;4.15;;;10.20;34.40;;;;;;6257811;22;20156;-91
2021/04/14 18:26:14;;;;;;;4.85;4.50;;;10.00;34.30;;;;;;6255811;22;20576;-91
2021/04/14 18:28:41;;;;;;;5.38;4.88;;;9.90;36.30;;;;;;6255731;22;20149;-91
2021/04/14 18:31:14;;;;;;;4.57;4.25;;;10.00;34.00;;;;;;6256399;22;20160;-92
2021/04/14 18:33:40;;;;;;;4.97;4.68;;;9.90;36.00;;;;;;6256162;22;20218;-90
2021/04/14 18:36:12;;;;;;;4.88;4.47;;;9.60;36.20;;;;;;6256308;22;20145;-92
2021/04/14 18:38:38;;;;;;;7.05;6.30;;;9.40;36.70;;;;;;6256424;22;20149;-92
2021/04/14 18:41:12;;;;;;;9.03;8.23;;;9.50;37.30;;;;;;6259860;22;20532;-94
2021/04/14 18:43:38;;;;;;;7.15;6.55;;;9.70;37.70;;;;;;6256406;22;20391;-92
2021/04/14 18:50:17;;;;;;;5.70;5.20;;;9.10;37.80;;;;;;6292302;22;20148;-93
2021/04/14 18:52:43;;;;;;;5.95;5.35;;;9.30;37.90;;;;;;6264706;22;20572;-92
2021/04/14 18:55:11;;;;;;;5.60;5.10;;;9.20;39.00;;;;;;6263623;22;20207;-92
2021/04/14 18:57:59;;;;;;;5.00;4.60;;;8.80;39.20;;;;;;6263540;22;20360;-95
2021/04/14 19:01:02;;;;;;;6.20;5.70;;;9.00;39.90;;;;;;6262611;22;20164;-93
2021/04/14 19:03:28;;;;;;;7.05;6.43;;;9.00;40.10;;;;;;6258183;22;20180;-91
2021/04/14 19:29:40;;;;;;;6.95;5.90;;;8.90;41.20;;;;;;6238061;23;20141;-93
2021/04/14 19:35:32;;;;;;;5.93;5.43;;;9.50;42.10;;;;;;6240974;23;20380;-93